Time,TemperatureF,DewpointF,PressureIn,WindDirection,WindDirectionDegrees,WindSpeedMPH,WindSpeedGustMPH,Humidity,HourlyPrecipIn,Conditions,Clouds,dailyrainin,SoftwareType,DateUTC
2013-01-28 00:00:00,31.9,31.4,29.82,South,173,1.0,1.0,98,0.00,,,0.00,VWS V14.01,2013-01-28 06:00:00,
2013-01-28 00:05:00,31.8,31.0,29.81,SE,128,3.0,4.2,97,0.00,,,0.00,VWS V14.01,2013-01-28 06:05:00,
2013-01-28 00:10:00,31.7,31.0,29.81,SE,128,2.0,3.1,97,0.00,,,0.00,VWS V14.01,2013-01-28 06:10:00,
2013-01-28 00:20:00,31.7,31.0,29.82,SE,128,1.0,2.1,97,0.00,,,0.00,VWS V14.01,2013-01-28 06:20:00,
2013-01-28 00:25:00,31.7,31.0,29.82,SE,128,1.0,2.1,97,0.00,,,0.00,VWS V14.01,2013-01-28 06:25:00,
2013-01-28 00:30:00,31.8,31.0,29.81,SE,128,1.0,2.1,97,0.00,,,0.00,VWS V14.01,2013-01-28 06:30:00,
2013-01-28 00:40:00,31.8,31.0,29.82,SE,128,0.0,0.0,97,0.00,,,0.00,VWS V14.01,2013-01-28 06:40:00,
2013-01-28 00:50:00,31.9,31.4,29.81,SE,128,0.0,0.0,98,0.00,,,0.00,VWS V14.01,2013-01-28 06:50:00,
2013-01-28 00:55:00,31.7,31.0,29.81,SE,128,1.0,1.0,97,0.00,,,0.00,VWS V14.01,2013-01-28 06:55:00,
2013-01-28 01:00:00,31.7,31.0,29.81,SE,128,0.0,1.0,97,0.00,,,0.00,VWS V14.01,2013-01-28 07:00:00,
2013-01-28 01:10:00,31.5,31.0,29.81,SE,128,0.0,2.1,98,0.00,,,0.00,VWS V14.01,2013-01-28 07:10:00,
2013-01-28 01:20:00,31.4,30.9,29.80,SE,128,1.0,2.1,98,0.00,,,0.00,VWS V14.01,2013-01-28 07:20:00,
2013-01-28 01:30:00,31.3,30.5,29.80,SE,128,2.0,2.1,97,0.00,,,0.00,VWS V14.01,2013-01-28 07:30:00,
2013-01-28 01:35:00,31.3,30.5,29.81,SE,128,1.0,2.1,97,0.00,,,0.00,VWS V14.01,2013-01-28 07:35:00,
2013-01-28 01:40:00,31.3,30.5,29.81,SE,128,0.0,1.0,97,0.00,,,0.00,VWS V14.01,2013-01-28 07:40:00,
2013-01-28 01:45:00,31.4,30.6,29.81,SE,128,1.0,3.1,97,0.00,,,0.00,VWS V14.01,2013-01-28 07:45:00,
2013-01-28 01:50:00,31.4,30.6,29.82,SE,128,1.0,2.1,97,0.00,,,0.00,VWS V14.01,2013-01-28 07:50:00,
2013-01-28 01:55:00,31.4,30.6,29.82,SE,128,1.0,2.1,97,0.00,,,0.00,VWS V14.01,2013-01-28 07:55:00,
2013-01-28 02:00:00,31.5,31.0,29.82,SE,128,2.0,2.1,98,0.00,,,0.00,VWS V14.01,2013-01-28 08:00:00,
2013-01-28 02:05:00,31.5,31.0,29.82,SE,128,1.0,2.1,98,0.00,,,0.00,VWS V14.01,2013-01-28 08:05:00,
2013-01-28 02:10:00,31.5,31.0,29.82,SE,128,0.0,2.1,98,0.00,,,0.00,VWS V14.01,2013-01-28 08:10:00,
2013-01-28 02:15:00,31.5,31.0,29.82,SE,128,1.0,2.1,98,0.00,,,0.00,VWS V14.01,2013-01-28 08:15:00,
2013-01-28 02:25:00,31.5,31.0,29.82,SE,128,0.0,1.0,98,0.00,,,0.00,VWS V14.01,2013-01-28 08:25:00,
2013-01-28 02:30:00,31.5,31.0,29.82,SE,128,0.0,1.0,98,0.00,,,0.00,VWS V14.01,2013-01-28 08:30:00,
2013-01-28 02:35:00,31.5,31.0,29.83,SE,128,0.0,0.0,98,0.00,,,0.00,VWS V14.01,2013-01-28 08:35:00,
2013-01-28 02:40:00,31.5,31.0,29.82,SE,128,0.0,0.0,98,0.00,,,0.00,VWS V14.01,2013-01-28 08:40:00,
2013-01-28 02:45:00,31.5,31.0,29.83,SE,128,0.0,0.0,98,0.00,,,0.00,VWS V14.01,2013-01-28 08:45:00,
2013-01-28 02:50:00,31.5,31.0,29.83,SE,128,0.0,0.0,98,0.00,,,0.00,VWS V14.01,2013-01-28 08:50:00,
2013-01-28 03:00:00,31.5,31.0,29.82,SE,128,0.0,0.0,98,0.00,,,0.00,VWS V14.01,2013-01-28 09:00:00,
2013-01-28 03:10:00,31.5,31.0,29.83,SE,128,0.0,0.0,98,0.00,,,0.00,VWS V14.01,2013-01-28 09:10:00,
2013-01-28 03:15:00,31.4,30.9,29.83,SE,128,0.0,0.0,98,0.00,,,0.00,VWS V14.01,2013-01-28 09:15:00,
2013-01-28 03:25:00,31.3,30.8,29.83,SE,128,0.0,0.0,98,0.00,,,0.00,VWS V14.01,2013-01-28 09:25:00,
2013-01-28 03:30:00,31.3,30.8,29.83,SE,128,0.0,0.0,98,0.00,,,0.00,VWS V14.01,2013-01-28 09:30:00,
2013-01-28 03:35:00,31.4,30.9,29.83,SE,128,2.0,2.1,98,0.00,,,0.00,VWS V14.01,2013-01-28 09:35:00,
2013-01-28 03:40:00,31.3,30.8,29.83,SE,128,1.0,3.1,98,0.00,,,0.00,VWS V14.01,2013-01-28 09:40:00,
2013-01-28 03:45:00,31.3,30.8,29.83,SE,128,1.0,2.1,98,0.00,,,0.00,VWS V14.01,2013-01-28 09:45:00,
2013-01-28 03:50:00,31.4,30.9,29.82,SE,128,2.0,3.1,98,0.00,,,0.00,VWS V14.01,2013-01-28 09:50:00,
2013-01-28 04:00:00,31.3,30.8,29.81,ESE,111,3.0,4.2,98,0.00,,,0.00,VWS V14.01,2013-01-28 10:00:00,
2013-01-28 04:10:00,31.4,30.9,29.81,ESE,106,5.0,5.2,98,0.00,,,0.00,VWS V14.01,2013-01-28 10:10:00,
2013-01-28 04:15:00,31.4,30.9,29.82,ESE,107,4.0,5.2,98,0.00,,,0.00,VWS V14.01,2013-01-28 10:15:00,
2013-01-28 04:25:00,31.4,30.9,29.82,SE,125,3.0,4.2,98,0.00,,,0.00,VWS V14.01,2013-01-28 10:25:00,
2013-01-28 04:30:00,31.5,31.0,29.82,ESE,118,4.0,5.2,98,0.00,,,0.00,VWS V14.01,2013-01-28 10:30:00,
2013-01-28 04:35:00,31.4,30.9,29.82,ESE,119,4.0,4.2,98,0.00,,,0.00,VWS V14.01,2013-01-28 10:35:00,
2013-01-28 04:40:00,31.5,31.0,29.82,SE,124,4.0,5.2,98,0.00,,,0.00,VWS V14.01,2013-01-28 10:40:00,
2013-01-28 04:45:00,31.5,31.0,29.82,SE,124,3.0,5.2,98,0.00,,,0.00,VWS V14.01,2013-01-28 10:45:00,
2013-01-28 04:50:00,31.5,31.0,29.82,SE,124,5.0,5.2,98,0.00,,,0.00,VWS V14.01,2013-01-28 10:50:00,
2013-01-28 04:55:00,31.6,31.1,29.82,SE,136,4.0,5.2,98,0.00,,,0.00,VWS V14.01,2013-01-28 10:55:00,
2013-01-28 05:00:00,31.7,31.2,29.82,SE,141,5.0,6.3,98,0.00,,,0.00,VWS V14.01,2013-01-28 11:00:00,
2013-01-28 05:10:00,31.6,31.1,29.82,SSE,156,3.0,5.2,98,0.00,,,0.00,VWS V14.01,2013-01-28 11:10:00,
2013-01-28 05:15:00,31.6,31.1,29.82,SSE,157,3.0,4.2,98,0.00,,,0.00,VWS V14.01,2013-01-28 11:15:00,
2013-01-28 05:20:00,31.6,31.1,29.82,SSE,157,3.0,3.1,98,0.00,,,0.00,VWS V14.01,2013-01-28 11:20:00,
2013-01-28 05:25:00,31.6,31.1,29.83,SSE,157,3.0,3.1,98,0.00,,,0.00,VWS V14.01,2013-01-28 11:25:00,
2013-01-28 05:30:00,31.6,31.1,29.83,SSE,157,3.0,3.1,98,0.00,,,0.00,VWS V14.01,2013-01-28 11:30:00,
2013-01-28 05:35:00,31.6,31.1,29.83,SSE,157,3.0,3.1,98,0.00,,,0.00,VWS V14.01,2013-01-28 11:35:00,
2013-01-28 05:40:00,31.6,31.1,29.83,SSE,157,3.0,3.1,98,0.00,,,0.00,VWS V14.01,2013-01-28 11:40:00,
2013-01-28 05:45:00,31.6,31.1,29.83,SSE,157,3.0,3.1,98,0.00,,,0.00,VWS V14.01,2013-01-28 11:45:00,
2013-01-28 05:50:00,31.6,31.1,29.83,SSE,157,3.0,3.1,98,0.00,,,0.00,VWS V14.01,2013-01-28 11:50:00,
2013-01-28 05:55:00,31.6,31.1,29.83,SSE,157,3.0,3.1,98,0.00,,,0.00,VWS V14.01,2013-01-28 11:55:00,
2013-01-28 06:00:00,31.6,31.1,29.83,SSE,157,3.0,3.1,98,0.00,,,0.00,VWS V14.01,2013-01-28 12:00:00,
2013-01-28 06:10:00,31.6,31.1,29.84,SSE,157,3.0,3.1,98,0.00,,,0.00,VWS V14.01,2013-01-28 12:10:00,
2013-01-28 06:20:00,32.1,31.6,29.85,South,176,4.0,5.2,98,0.00,,,0.00,VWS V14.01,2013-01-28 12:20:00,
2013-01-28 06:25:00,32.1,31.6,29.85,South,189,2.0,7.3,98,0.00,,,0.00,VWS V14.01,2013-01-28 12:25:00,
2013-01-28 06:30:00,32.1,31.6,29.84,SSE,166,2.0,4.2,98,0.00,,,0.00,VWS V14.01,2013-01-28 12:30:00,
2013-01-28 06:35:00,32.1,31.6,29.83,SSE,148,5.0,6.3,98,0.00,,,0.00,VWS V14.01,2013-01-28 12:35:00,
2013-01-28 06:40:00,32.1,31.6,29.83,SE,141,5.0,6.3,98,0.00,,,0.00,VWS V14.01,2013-01-28 12:40:00,
2013-01-28 06:45:00,32.1,31.6,29.83,SE,138,5.0,6.3,98,0.00,,,0.00,VWS V14.01,2013-01-28 12:45:00,
2013-01-28 06:50:00,32.0,31.5,29.83,SSE,148,6.0,7.3,98,0.00,,,0.00,VWS V14.01,2013-01-28 12:50:00,
2013-01-28 06:55:00,32.0,31.5,29.83,SE,140,7.0,7.3,98,0.00,,,0.00,VWS V14.01,2013-01-28 12:55:00,
2013-01-28 07:00:00,32.0,31.5,29.83,SSE,163,3.0,7.3,98,0.00,,,0.00,VWS V14.01,2013-01-28 13:00:00,
2013-01-28 07:10:00,32.2,31.7,29.85,South,180,3.0,7.3,98,0.00,,,0.00,VWS V14.01,2013-01-28 13:10:00,
2013-01-28 07:15:00,32.2,31.7,29.84,South,177,3.0,6.3,98,0.00,,,0.00,VWS V14.01,2013-01-28 13:15:00,
2013-01-28 07:20:00,32.2,31.7,29.85,South,185,5.0,6.3,98,0.00,,,0.00,VWS V14.01,2013-01-28 13:20:00,
2013-01-28 07:25:00,32.3,31.8,29.85,South,186,6.0,7.3,98,0.00,,,0.00,VWS V14.01,2013-01-28 13:25:00,
2013-01-28 07:30:00,32.2,31.7,29.86,SSW,192,4.0,6.3,98,0.00,,,0.00,VWS V14.01,2013-01-28 13:30:00,
2013-01-28 07:35:00,32.2,31.7,29.85,South,182,5.0,6.3,98,0.00,,,0.00,VWS V14.01,2013-01-28 13:35:00,
2013-01-28 07:40:00,32.3,31.8,29.85,South,174,3.0,6.3,98,0.00,,,0.00,VWS V14.01,2013-01-28 13:40:00,
2013-01-28 07:45:00,32.3,31.8,29.85,SSE,166,3.0,6.3,98,0.00,,,0.00,VWS V14.01,2013-01-28 13:45:00,
2013-01-28 07:50:00,32.4,31.9,29.84,SSE,162,3.0,4.2,98,0.00,,,0.00,VWS V14.01,2013-01-28 13:50:00,
2013-01-28 07:55:00,32.4,31.9,29.84,SSE,163,2.0,4.2,98,0.00,,,0.00,VWS V14.01,2013-01-28 13:55:00,
2013-01-28 08:00:00,32.5,32.0,29.85,SSE,159,3.0,3.1,98,0.00,,,0.00,VWS V14.01,2013-01-28 14:00:00,
2013-01-28 08:10:00,32.6,32.1,29.84,SSE,150,3.0,4.2,98,0.00,,,0.00,VWS V14.01,2013-01-28 14:10:00,
2013-01-28 08:15:00,32.5,32.0,29.84,SSE,152,1.0,3.1,98,0.00,,,0.00,VWS V14.01,2013-01-28 14:15:00,
2013-01-28 08:20:00,32.6,32.1,29.85,SSE,153,1.0,2.1,98,0.00,,,0.00,VWS V14.01,2013-01-28 14:20:00,
2013-01-28 08:25:00,32.6,32.1,29.84,SSE,153,3.0,4.2,98,0.00,,,0.00,VWS V14.01,2013-01-28 14:25:00,
2013-01-28 08:30:00,32.6,32.1,29.84,SE,139,3.0,4.2,98,0.00,,,0.00,VWS V14.01,2013-01-28 14:30:00,
2013-01-28 08:35:00,32.5,32.0,29.84,SSE,148,2.0,3.1,98,0.00,,,0.00,VWS V14.01,2013-01-28 14:35:00,
2013-01-28 08:40:00,32.5,32.0,29.84,SSE,148,2.0,3.1,98,0.00,,,0.00,VWS V14.01,2013-01-28 14:40:00,
2013-01-28 08:45:00,32.5,32.0,29.85,SSE,154,1.0,3.1,98,0.00,,,0.00,VWS V14.01,2013-01-28 14:45:00,
2013-01-28 08:50:00,32.6,32.1,29.85,South,180,4.0,5.2,98,0.00,,,0.00,VWS V14.01,2013-01-28 14:50:00,
2013-01-28 09:00:00,32.8,32.3,29.85,South,172,1.0,7.3,98,0.00,,,0.00,VWS V14.01,2013-01-28 15:00:00,
2013-01-28 09:10:00,32.9,32.4,29.85,South,169,2.0,6.3,98,0.00,,,0.00,VWS V14.01,2013-01-28 15:10:00,
2013-01-28 09:15:00,32.9,32.4,29.85,SSE,152,5.0,6.3,98,0.00,,,0.00,VWS V14.01,2013-01-28 15:15:00,
2013-01-28 09:20:00,32.9,32.4,29.84,SE,142,6.0,8.4,98,0.00,,,0.00,VWS V14.01,2013-01-28 15:20:00,
2013-01-28 09:25:00,32.9,32.4,29.85,SSE,159,4.0,7.3,98,0.00,,,0.00,VWS V14.01,2013-01-28 15:25:00,
2013-01-28 09:30:00,32.9,32.4,29.84,SSE,151,6.0,7.3,98,0.00,,,0.00,VWS V14.01,2013-01-28 15:30:00,
2013-01-28 09:35:00,32.9,32.4,29.85,SSE,165,5.0,8.4,98,0.00,,,0.00,VWS V14.01,2013-01-28 15:35:00,
2013-01-28 09:40:00,33.0,32.5,29.85,South,175,3.0,7.3,98,0.00,,,0.00,VWS V14.01,2013-01-28 15:40:00,
2013-01-28 09:45:00,33.0,32.5,29.85,South,175,5.0,6.3,98,0.00,,,0.00,VWS V14.01,2013-01-28 15:45:00,
2013-01-28 09:50:00,33.1,32.6,29.84,South,171,3.0,7.3,98,0.00,,,0.00,VWS V14.01,2013-01-28 15:50:00,
2013-01-28 09:55:00,33.1,32.6,29.84,SSE,168,3.0,8.4,98,0.00,,,0.00,VWS V14.01,2013-01-28 15:55:00,
2013-01-28 10:00:00,33.1,32.6,29.84,South,174,4.0,6.3,98,0.00,,,0.00,VWS V14.01,2013-01-28 16:00:00,
2013-01-28 10:10:00,33.2,32.7,29.84,SSE,161,5.0,7.3,98,0.00,,,0.00,VWS V14.01,2013-01-28 16:10:00,
2013-01-28 10:15:00,33.1,32.6,29.84,SSE,167,5.0,7.3,98,0.00,,,0.00,VWS V14.01,2013-01-28 16:15:00,
2013-01-28 10:20:00,33.2,32.7,29.85,SSE,161,5.0,7.3,98,0.00,,,0.00,VWS V14.01,2013-01-28 16:20:00,
2013-01-28 10:25:00,33.2,32.7,29.85,SSE,163,4.0,7.3,98,0.00,,,0.00,VWS V14.01,2013-01-28 16:25:00,
2013-01-28 10:30:00,33.2,32.7,29.84,SSE,160,5.0,9.4,98,0.00,,,0.00,VWS V14.01,2013-01-28 16:30:00,
2013-01-28 10:35:00,33.2,32.7,29.84,SSE,159,6.0,9.4,98,0.00,,,0.00,VWS V14.01,2013-01-28 16:35:00,
2013-01-28 10:40:00,33.2,32.7,29.85,SSE,162,5.0,7.3,98,0.00,,,0.00,VWS V14.01,2013-01-28 16:40:00,
2013-01-28 10:45:00,33.2,32.7,29.85,SSE,167,6.0,7.3,98,0.00,,,0.00,VWS V14.01,2013-01-28 16:45:00,
2013-01-28 10:50:00,33.3,32.8,29.85,SSE,167,4.0,6.3,98,0.00,,,0.00,VWS V14.01,2013-01-28 16:50:00,
2013-01-28 10:55:00,33.3,32.8,29.85,SSE,165,6.0,9.4,98,0.00,,,0.00,VWS V14.01,2013-01-28 16:55:00,
2013-01-28 11:00:00,33.3,32.8,29.86,South,170,4.0,8.4,98,0.00,,,0.00,VWS V14.01,2013-01-28 17:00:00,
2013-01-28 11:10:00,33.2,32.7,29.85,SSE,163,7.0,11.5,98,0.00,,,0.00,VWS V14.01,2013-01-28 17:10:00,
2013-01-28 11:15:00,33.2,32.7,29.86,SSE,161,6.0,11.5,98,0.00,,,0.00,VWS V14.01,2013-01-28 17:15:00,
2013-01-28 11:25:00,33.3,32.8,29.86,SSE,167,5.0,9.4,98,0.00,,,0.00,VWS V14.01,2013-01-28 17:25:00,
2013-01-28 11:30:00,33.4,32.9,29.86,South,171,5.0,10.5,98,0.00,,,0.00,VWS V14.01,2013-01-28 17:30:00,
2013-01-28 11:35:00,33.4,32.9,29.86,SSE,168,3.0,9.4,98,0.00,,,0.00,VWS V14.01,2013-01-28 17:35:00,
2013-01-28 11:40:00,33.4,32.9,29.85,SSE,151,5.0,9.4,98,0.00,,,0.00,VWS V14.01,2013-01-28 17:40:00,
2013-01-28 11:45:00,33.3,33.0,29.85,SSE,167,6.0,10.5,99,0.00,,,0.00,VWS V14.01,2013-01-28 17:45:00,
2013-01-28 11:50:00,33.3,33.0,29.84,South,169,5.0,8.4,99,0.00,,,0.00,VWS V14.01,2013-01-28 17:50:00,
2013-01-28 11:55:00,33.3,33.0,29.84,SSE,157,7.0,10.5,99,0.00,,,0.00,VWS V14.01,2013-01-28 17:55:00,
2013-01-28 12:00:00,33.3,33.0,29.83,SE,139,9.0,9.4,99,0.00,,,0.00,VWS V14.01,2013-01-28 18:00:00,
2013-01-28 12:05:00,33.3,33.0,29.83,SSE,151,6.0,9.4,99,0.00,,,0.00,VWS V14.01,2013-01-28 18:05:00,
2013-01-28 12:10:00,33.3,33.0,29.83,SSE,161,6.0,8.4,99,0.00,,,0.00,VWS V14.01,2013-01-28 18:10:00,
2013-01-28 12:15:00,33.4,33.1,29.83,SSE,159,5.0,8.4,99,0.00,,,0.00,VWS V14.01,2013-01-28 18:15:00,
2013-01-28 12:20:00,33.4,33.1,29.83,SE,142,9.0,9.4,99,0.00,,,0.00,VWS V14.01,2013-01-28 18:20:00,
2013-01-28 12:25:00,33.4,33.1,29.83,SSE,156,7.0,9.4,99,0.00,,,0.00,VWS V14.01,2013-01-28 18:25:00,
2013-01-28 12:30:00,33.4,33.1,29.82,SE,146,6.0,7.3,99,0.00,,,0.00,VWS V14.01,2013-01-28 18:30:00,
2013-01-28 12:35:00,33.3,33.0,29.82,SSE,155,6.0,7.3,99,0.00,,,0.00,VWS V14.01,2013-01-28 18:35:00,
2013-01-28 12:40:00,33.3,33.0,29.82,SE,146,6.0,8.4,99,0.00,,,0.00,VWS V14.01,2013-01-28 18:40:00,
2013-01-28 12:45:00,33.3,33.0,29.82,SE,132,5.0,7.3,99,0.00,,,0.00,VWS V14.01,2013-01-28 18:45:00,
2013-01-28 12:50:00,33.2,32.9,29.81,SE,146,5.0,8.4,99,0.00,,,0.00,VWS V14.01,2013-01-28 18:50:00,
2013-01-28 12:55:00,33.2,32.9,29.81,SSE,152,6.0,7.3,99,0.00,,,0.00,VWS V14.01,2013-01-28 18:55:00,
2013-01-28 13:00:00,33.2,32.9,29.82,SSE,162,4.0,7.3,99,0.00,,,0.00,VWS V14.01,2013-01-28 19:00:00,
2013-01-28 13:05:00,33.2,32.9,29.81,SSE,166,4.0,7.3,99,0.00,,,0.00,VWS V14.01,2013-01-28 19:05:00,
2013-01-28 13:10:00,33.2,32.9,29.82,SSE,148,7.0,8.4,99,0.00,,,0.00,VWS V14.01,2013-01-28 19:10:00,
2013-01-28 13:15:00,33.2,32.9,29.82,SSE,157,5.0,10.5,99,0.00,,,0.00,VWS V14.01,2013-01-28 19:15:00,
2013-01-28 13:20:00,33.2,32.9,29.82,SSE,156,6.0,9.4,99,0.00,,,0.00,VWS V14.01,2013-01-28 19:20:00,
2013-01-28 13:25:00,33.1,32.8,29.81,SSE,161,4.0,7.3,99,0.00,,,0.00,VWS V14.01,2013-01-28 19:25:00,
2013-01-28 13:30:00,33.2,32.9,29.81,SE,135,7.0,8.4,99,0.00,,,0.00,VWS V14.01,2013-01-28 19:30:00,
2013-01-28 13:35:00,33.1,32.8,29.80,SE,132,6.0,9.4,99,0.00,,,0.00,VWS V14.01,2013-01-28 19:35:00,
2013-01-28 13:40:00,33.1,32.8,29.80,SE,142,8.0,9.4,99,0.00,,,0.00,VWS V14.01,2013-01-28 19:40:00,
2013-01-28 13:45:00,33.0,32.8,29.80,SE,134,6.0,8.4,99,0.00,,,0.00,VWS V14.01,2013-01-28 19:45:00,
2013-01-28 13:50:00,33.0,32.8,29.80,SSE,150,7.0,9.4,99,0.00,,,0.00,VWS V14.01,2013-01-28 19:50:00,
2013-01-28 13:55:00,33.0,32.8,29.80,SE,146,7.0,9.4,99,0.00,,,0.00,VWS V14.01,2013-01-28 19:55:00,
2013-01-28 14:00:00,32.9,32.7,29.80,SE,140,8.0,10.5,99,0.00,,,0.00,VWS V14.01,2013-01-28 20:00:00,
2013-01-28 14:05:00,32.8,32.5,29.80,SE,132,8.0,10.5,99,0.00,,,0.00,VWS V14.01,2013-01-28 20:05:00,
2013-01-28 14:10:00,32.8,32.5,29.79,ESE,123,9.0,9.4,99,0.00,,,0.00,VWS V14.01,2013-01-28 20:10:00,
2013-01-28 14:15:00,32.8,32.5,29.80,SE,128,8.0,11.5,99,0.00,,,0.00,VWS V14.01,2013-01-28 20:15:00,
2013-01-28 14:25:00,32.7,32.5,29.80,SE,137,7.0,10.5,99,0.00,,,0.00,VWS V14.01,2013-01-28 20:25:00,
2013-01-28 14:30:00,32.7,32.5,29.79,ESE,123,9.0,9.4,99,0.00,,,0.00,VWS V14.01,2013-01-28 20:30:00,
2013-01-28 14:35:00,32.6,32.3,29.79,SE,140,8.0,10.5,99,0.00,,,0.00,VWS V14.01,2013-01-28 20:35:00,
2013-01-28 14:40:00,32.6,32.3,29.79,SE,124,7.0,10.5,99,0.00,,,0.00,VWS V14.01,2013-01-28 20:40:00,
2013-01-28 14:45:00,32.6,32.3,29.79,SE,132,6.0,9.4,99,0.00,,,0.00,VWS V14.01,2013-01-28 20:45:00,
2013-01-28 14:50:00,32.6,32.3,29.79,SE,134,7.0,9.4,99,0.00,,,0.00,VWS V14.01,2013-01-28 20:50:00,
2013-01-28 14:55:00,32.6,32.3,29.79,SE,138,9.0,10.5,99,0.00,,,0.00,VWS V14.01,2013-01-28 20:55:00,
2013-01-28 15:00:00,32.6,32.3,29.79,SE,127,9.0,11.5,99,0.00,,,0.00,VWS V14.01,2013-01-28 21:00:00,
2013-01-28 15:10:00,32.7,32.5,29.79,ESE,121,10.0,10.5,99,0.00,,,0.00,VWS V14.01,2013-01-28 21:10:00,
2013-01-28 15:15:00,32.7,32.5,29.79,ESE,123,10.0,11.5,99,0.00,,,0.00,VWS V14.01,2013-01-28 21:15:00,
2013-01-28 15:25:00,32.8,32.5,29.80,SE,132,8.0,10.5,99,0.00,,,0.00,VWS V14.01,2013-01-28 21:25:00,
2013-01-28 15:30:00,32.8,32.5,29.81,SSE,157,7.0,10.5,99,0.00,,,0.00,VWS V14.01,2013-01-28 21:30:00,
2013-01-28 15:35:00,32.8,32.5,29.81,SSE,163,8.0,12.6,99,0.00,,,0.00,VWS V14.01,2013-01-28 21:35:00,
2013-01-28 15:40:00,32.7,32.5,29.81,SSE,152,7.0,11.5,99,0.00,,,0.00,VWS V14.01,2013-01-28 21:40:00,
2013-01-28 15:45:00,32.7,32.5,29.81,SSE,150,8.0,11.5,99,0.00,,,0.00,VWS V14.01,2013-01-28 21:45:00,
2013-01-28 15:50:00,32.7,32.5,29.81,SSE,149,8.0,10.5,99,0.00,,,0.00,VWS V14.01,2013-01-28 21:50:00,
2013-01-28 15:55:00,32.7,32.5,29.81,SSE,148,10.0,10.5,99,0.00,,,0.00,VWS V14.01,2013-01-28 21:55:00,
2013-01-28 16:00:00,32.6,32.3,29.81,SSE,157,6.0,11.5,99,0.00,,,0.00,VWS V14.01,2013-01-28 22:00:00,
2013-01-28 16:05:00,32.6,32.3,29.81,SSE,159,8.0,10.5,99,0.00,,,0.00,VWS V14.01,2013-01-28 22:05:00,
2013-01-28 16:10:00,32.5,32.2,29.80,SSE,148,7.0,12.6,99,0.00,,,0.00,VWS V14.01,2013-01-28 22:10:00,
2013-01-28 16:15:00,32.5,32.5,29.80,SSE,157,8.0,13.6,100,0.00,,,0.00,VWS V14.01,2013-01-28 22:15:00,
2013-01-28 16:25:00,32.5,32.5,29.79,SE,132,12.0,13.6,100,0.00,,,0.00,VWS V14.01,2013-01-28 22:25:00,
2013-01-28 16:35:00,32.4,32.2,29.79,SE,131,8.0,12.6,99,0.00,,,0.00,VWS V14.01,2013-01-28 22:35:00,
2013-01-28 16:40:00,32.3,32.0,29.79,SE,138,9.0,11.5,99,0.00,,,0.00,VWS V14.01,2013-01-28 22:40:00,
2013-01-28 16:45:00,32.3,32.0,29.79,SE,137,8.0,11.5,99,0.00,,,0.00,VWS V14.01,2013-01-28 22:45:00,
2013-01-28 16:55:00,32.2,32.0,29.78,SE,141,6.0,8.4,99,0.00,,,0.00,VWS V14.01,2013-01-28 22:55:00,
2013-01-28 17:00:00,32.2,32.2,29.78,SE,128,7.0,9.4,100,0.00,,,0.00,VWS V14.01,2013-01-28 23:00:00,
2013-01-28 17:05:00,32.1,32.1,29.78,ESE,117,3.0,9.4,100,0.00,,,0.00,VWS V14.01,2013-01-28 23:05:00,
2013-01-28 17:10:00,32.1,32.1,29.78,ESE,123,5.0,9.4,100,0.00,,,0.00,VWS V14.01,2013-01-28 23:10:00,
2013-01-28 17:15:00,32.1,32.1,29.78,SE,133,6.0,8.4,100,0.00,,,0.00,VWS V14.01,2013-01-28 23:15:00,
2013-01-28 17:20:00,32.1,32.1,29.78,SE,125,6.0,7.3,100,0.00,,,0.00,VWS V14.01,2013-01-28 23:20:00,
2013-01-28 17:25:00,32.1,32.1,29.78,ESE,119,8.0,9.4,100,0.00,,,0.00,VWS V14.01,2013-01-28 23:25:00,
2013-01-28 17:30:00,32.1,32.1,29.77,SE,124,5.0,9.4,100,0.00,,,0.00,VWS V14.01,2013-01-28 23:30:00,
2013-01-28 17:35:00,32.1,32.1,29.77,ESE,102,7.0,9.4,100,0.00,,,0.00,VWS V14.01,2013-01-28 23:35:00,
2013-01-28 17:40:00,32.0,32.0,29.77,East,101,6.0,9.4,100,0.00,,,0.00,VWS V14.01,2013-01-28 23:40:00,
2013-01-28 17:50:00,31.9,31.6,29.76,East,88,7.0,10.5,99,0.00,,,0.00,VWS V14.01,2013-01-28 23:50:00,
2013-01-28 17:55:00,31.9,31.6,29.75,East,82,8.0,10.5,99,0.00,,,0.00,VWS V14.01,2013-01-28 23:55:00,
2013-01-28 18:00:00,31.8,31.5,29.75,East,88,7.0,10.5,99,0.00,,,0.00,VWS V14.01,2013-01-29 00:00:00,
2013-01-28 18:05:00,31.7,31.5,29.75,East,87,8.0,10.5,99,0.00,,,0.00,VWS V14.01,2013-01-29 00:05:00,
2013-01-28 18:10:00,31.7,31.5,29.75,East,82,8.0,10.5,99,0.00,,,0.00,VWS V14.01,2013-01-29 00:10:00,
2013-01-28 18:15:00,31.6,31.6,29.75,ENE,78,11.0,11.5,100,0.00,,,0.00,VWS V14.01,2013-01-29 00:15:00,
2013-01-28 18:20:00,31.6,31.6,29.74,East,80,9.0,11.5,100,0.00,,,0.00,VWS V14.01,2013-01-29 00:20:00,
2013-01-28 18:25:00,31.5,31.5,29.74,East,89,11.0,15.7,100,0.00,,,0.00,VWS V14.01,2013-01-29 00:25:00,
2013-01-28 18:35:00,31.5,31.5,29.75,ESE,108,11.0,14.7,100,0.00,,,0.00,VWS V14.01,2013-01-29 00:35:00,
2013-01-28 18:40:00,31.5,31.5,29.76,ESE,115,13.0,15.7,100,0.00,,,0.00,VWS V14.01,2013-01-29 00:40:00,
2013-01-28 18:45:00,31.5,31.5,29.76,ESE,117,12.0,14.7,100,0.00,,,0.00,VWS V14.01,2013-01-29 00:45:00,
2013-01-28 18:50:00,31.5,31.5,29.77,SE,133,10.0,14.7,100,0.00,,,0.00,VWS V14.01,2013-01-29 00:50:00,
2013-01-28 18:55:00,31.5,31.5,29.76,ESE,122,11.0,13.6,100,0.00,,,0.00,VWS V14.01,2013-01-29 00:55:00,
2013-01-28 19:00:00,31.4,31.4,29.76,SE,128,10.0,15.7,100,0.00,,,0.00,VWS V14.01,2013-01-29 01:00:00,
2013-01-28 19:05:00,31.4,31.4,29.77,SE,133,11.0,14.7,100,0.00,,,0.00,VWS V14.01,2013-01-29 01:05:00,
2013-01-28 19:10:00,31.3,31.3,29.75,ESE,122,11.0,16.8,100,0.00,,,0.00,VWS V14.01,2013-01-29 01:10:00,
2013-01-28 19:15:00,31.4,31.4,29.75,ESE,117,10.0,14.7,100,0.00,,,0.00,VWS V14.01,2013-01-29 01:15:00,
2013-01-28 19:20:00,31.5,31.5,29.75,ESE,113,11.0,15.7,100,0.00,,,0.00,VWS V14.01,2013-01-29 01:20:00,
2013-01-28 19:25:00,31.5,31.5,29.74,SE,124,10.0,16.8,100,0.00,,,0.00,VWS V14.01,2013-01-29 01:25:00,
2013-01-28 19:30:00,31.5,31.5,29.74,ESE,121,10.0,15.7,100,0.00,,,0.00,VWS V14.01,2013-01-29 01:30:00,
2013-01-28 19:40:00,31.6,31.6,29.74,ESE,117,7.0,10.5,100,0.00,,,0.00,VWS V14.01,2013-01-29 01:40:00,
2013-01-28 19:45:00,31.6,31.6,29.73,ESE,120,9.0,12.6,100,0.00,,,0.00,VWS V14.01,2013-01-29 01:45:00,
2013-01-28 19:50:00,31.6,31.6,29.73,ESE,121,10.0,12.6,100,0.00,,,0.00,VWS V14.01,2013-01-29 01:50:00,
2013-01-28 19:55:00,31.7,31.7,29.73,SE,128,11.0,12.6,100,0.00,,,0.00,VWS V14.01,2013-01-29 01:55:00,
2013-01-28 20:00:00,31.7,31.7,29.73,SE,132,8.0,11.5,100,0.00,,,0.00,VWS V14.01,2013-01-29 02:00:00,
2013-01-28 20:05:00,31.7,31.7,29.73,SE,130,5.0,11.5,100,0.00,,,0.00,VWS V14.01,2013-01-29 02:05:00,
2013-01-28 20:10:00,31.8,31.8,29.73,ESE,121,5.0,9.4,100,0.00,,,0.00,VWS V14.01,2013-01-29 02:10:00,
2013-01-28 20:15:00,31.8,31.8,29.71,ESE,113,4.0,5.2,100,0.00,,,0.00,VWS V14.01,2013-01-29 02:15:00,
2013-01-28 20:20:00,31.8,31.8,29.71,ESE,113,5.0,7.3,100,0.00,,,0.00,VWS V14.01,2013-01-29 02:20:00,
2013-01-28 20:25:00,31.9,31.9,29.73,SE,142,9.0,10.5,100,0.00,,,0.00,VWS V14.01,2013-01-29 02:25:00,
2013-01-28 20:30:00,31.9,31.9,29.73,SE,142,9.0,12.6,100,0.00,,,0.00,VWS V14.01,2013-01-29 02:30:00,
2013-01-28 20:35:00,31.9,31.9,29.73,ESE,113,7.0,10.5,100,0.00,,,0.00,VWS V14.01,2013-01-29 02:35:00,
2013-01-28 20:40:00,31.9,31.9,29.72,ESE,120,5.0,8.4,100,0.00,,,0.00,VWS V14.01,2013-01-29 02:40:00,
2013-01-28 20:45:00,32.0,32.0,29.71,ESE,113,3.0,7.3,100,0.00,,,0.00,VWS V14.01,2013-01-29 02:45:00,
2013-01-28 20:50:00,32.0,32.0,29.71,ESE,113,3.0,5.2,100,0.00,,,0.00,VWS V14.01,2013-01-29 02:50:00,
2013-01-28 20:55:00,32.1,32.1,29.71,ESE,113,3.0,4.2,100,0.00,,,0.00,VWS V14.01,2013-01-29 02:55:00,
2013-01-28 21:00:00,32.1,32.1,29.71,ESE,113,1.0,5.2,100,0.00,,,0.00,VWS V14.01,2013-01-29 03:00:00,
2013-01-28 21:05:00,32.2,32.2,29.70,ESE,113,3.0,3.1,100,0.00,,,0.00,VWS V14.01,2013-01-29 03:05:00,
2013-01-28 21:10:00,32.2,32.2,29.71,ESE,113,1.0,3.1,100,0.00,,,0.00,VWS V14.01,2013-01-29 03:10:00,
2013-01-28 21:15:00,32.2,32.2,29.70,ESE,113,2.0,3.1,100,0.00,,,0.00,VWS V14.01,2013-01-29 03:15:00,
2013-01-28 21:20:00,32.3,32.3,29.70,ESE,113,3.0,3.1,100,0.01,,,0.01,VWS V14.01,2013-01-29 03:20:00,
2013-01-28 21:25:00,32.3,32.3,29.70,ESE,113,2.0,3.1,100,0.01,,-RA,0.01,VWS V14.01,2013-01-29 03:25:00,
2013-01-28 21:30:00,32.3,32.3,29.70,ESE,113,4.0,5.2,100,0.01,,-RA,0.01,VWS V14.01,2013-01-29 03:30:00,
2013-01-28 21:35:00,32.4,32.4,29.69,ESE,113,3.0,5.2,100,0.01,,-RA,0.01,VWS V14.01,2013-01-29 03:35:00,
2013-01-28 21:40:00,32.4,32.4,29.69,ESE,113,5.0,7.3,100,0.01,,-RA,0.01,VWS V14.01,2013-01-29 03:40:00,
2013-01-28 21:45:00,32.4,32.4,29.69,ESE,113,4.0,7.3,100,0.02,,OVC011,0.02,VWS V14.01,2013-01-29 03:45:00,
2013-01-28 21:50:00,32.4,32.4,29.68,ESE,113,4.0,7.3,100,0.02,,OVC011,0.02,VWS V14.01,2013-01-29 03:50:00,
2013-01-28 21:55:00,32.5,32.5,29.69,ESE,113,7.0,7.3,100,0.02,,OVC011,0.02,VWS V14.01,2013-01-29 03:55:00,
2013-01-28 22:00:00,32.5,32.5,29.68,ESE,113,7.0,9.4,100,0.02,,OVC011,0.02,VWS V14.01,2013-01-29 04:00:00,
2013-01-28 22:05:00,32.5,32.5,29.68,ESE,113,8.0,10.5,100,0.02,,,0.02,VWS V14.01,2013-01-29 04:05:00,
2013-01-28 22:15:00,32.5,32.5,29.68,ESE,113,5.0,9.4,100,0.02,,,0.02,VWS V14.01,2013-01-29 04:15:00,
2013-01-28 22:20:00,32.5,32.5,29.68,ESE,113,2.0,7.3,100,0.02,,,0.02,VWS V14.01,2013-01-29 04:20:00,
2013-01-28 22:25:00,32.5,32.5,29.68,ESE,113,1.0,3.1,100,0.01,,,0.02,VWS V14.01,2013-01-29 04:25:00,
2013-01-28 22:30:00,32.5,32.5,29.67,ESE,113,1.0,3.1,100,0.01,,,0.02,VWS V14.01,2013-01-29 04:30:00,
2013-01-28 22:35:00,32.5,32.5,29.67,ESE,113,3.0,4.2,100,0.01,,,0.02,VWS V14.01,2013-01-29 04:35:00,
2013-01-28 22:40:00,32.5,32.5,29.67,ESE,113,3.0,4.2,100,0.01,,,0.02,VWS V14.01,2013-01-29 04:40:00,
2013-01-28 22:45:00,32.5,32.5,29.67,ESE,113,2.0,3.1,100,0.01,,,0.02,VWS V14.01,2013-01-29 04:45:00,
2013-01-28 22:50:00,32.5,32.5,29.66,ESE,113,0.0,3.1,100,0.00,,,0.02,VWS V14.01,2013-01-29 04:50:00,
2013-01-28 22:55:00,32.5,32.5,29.66,ESE,113,0.0,1.0,100,0.00,,,0.02,VWS V14.01,2013-01-29 04:55:00,
2013-01-28 23:00:00,32.5,32.5,29.66,ESE,113,0.0,0.0,100,0.00,,,0.02,VWS V14.01,2013-01-29 05:00:00,
2013-01-28 23:05:00,32.6,32.6,29.66,ESE,113,0.0,0.0,100,0.00,,,0.02,VWS V14.01,2013-01-29 05:05:00,
2013-01-28 23:10:00,32.6,32.6,29.66,ESE,113,0.0,0.0,100,0.00,,,0.02,VWS V14.01,2013-01-29 05:10:00,
2013-01-28 23:15:00,32.6,32.6,29.66,ESE,113,0.0,0.0,100,0.00,,,0.02,VWS V14.01,2013-01-29 05:15:00,
2013-01-28 23:20:00,32.8,32.8,29.66,ESE,113,0.0,0.0,100,0.00,,,0.02,VWS V14.01,2013-01-29 05:20:00,
2013-01-28 23:25:00,32.8,32.8,29.66,ESE,113,0.0,0.0,100,0.00,,,0.02,VWS V14.01,2013-01-29 05:25:00,
2013-01-28 23:30:00,32.8,32.8,29.65,ESE,113,0.0,0.0,100,0.00,,,0.02,VWS V14.01,2013-01-29 05:30:00,
2013-01-28 23:35:00,32.7,32.7,29.65,ESE,113,0.0,0.0,100,0.00,,,0.02,VWS V14.01,2013-01-29 05:35:00,
2013-01-28 23:40:00,32.7,32.7,29.64,ESE,113,0.0,0.0,100,0.00,,,0.02,VWS V14.01,2013-01-29 05:40:00,
2013-01-28 23:45:00,32.8,32.8,29.63,ESE,113,0.0,1.0,100,0.00,,,0.02,VWS V14.01,2013-01-29 05:45:00,
2013-01-28 23:50:00,32.7,32.7,29.63,ESE,113,0.0,2.1,100,0.00,,,0.02,VWS V14.01,2013-01-29 05:50:00,
2013-01-28 23:55:00,32.6,32.6,29.63,ESE,113,0.0,0.0,100,0.00,,,0.02,VWS V14.01,2013-01-29 05:55:00,